Time;durP1;ratioP1;P1;durP2;ratioP2;P2;SDS_P1;SDS_P2;PMS_P1;PMS_P2;Temp;Humidity;BMP_temperature;BMP_pressure;BME280_temperature;BME280_humidity;BME280_pressure;Samples;Min_cycle;Max_cycle;Signal;HPM_P1;HPM_P2
2021/05/29 00:00:29;;;;;;;7.27;4.67;;;;;;;10.75;100.00;101461.88;5241196;28;20024;-78
2021/05/29 00:02:59;;;;;;;6.30;4.32;;;;;;;10.68;100.00;101456.81;5245009;28;20278;-78
2021/05/29 00:05:29;;;;;;;4.80;3.95;;;;;;;10.72;100.00;101458.47;5237779;28;20090;-79
2021/05/29 00:07:59;;;;;;;6.88;4.10;;;;;;;10.92;100.00;101461.50;5231516;28;20108;-79
2021/05/29 00:10:30;;;;;;;5.68;4.15;;;;;;;10.76;100.00;101462.72;5240349;28;20094;-78
2021/05/29 00:13:00;;;;;;;6.30;4.43;;;;;;;10.58;100.00;101460.50;5232498;28;20039;-79
2021/05/29 00:15:31;;;;;;;8.63;5.30;;;;;;;10.41;100.00;101465.22;5241066;28;20017;-79
2021/05/29 00:18:01;;;;;;;6.70;4.35;;;;;;;10.33;100.00;101461.94;5237067;28;20028;-80
2021/05/29 00:20:32;;;;;;;9.20;4.10;;;;;;;10.39;100.00;101469.63;5241352;28;20027;-80
2021/05/29 00:23:02;;;;;;;6.20;4.10;;;;;;;10.26;100.00;101468.16;5228392;28;20478;-78
2021/05/29 00:25:33;;;;;;;6.15;4.30;;;;;;;10.24;100.00;101464.72;5241264;28;20028;-79
2021/05/29 00:28:04;;;;;;;10.45;4.00;;;;;;;10.55;100.00;101457.97;5236791;28;20081;-77
2021/05/29 00:30:35;;;;;;;4.85;3.55;;;;;;;10.50;100.00;101458.06;5236612;28;20039;-79
2021/05/29 00:33:07;;;;;;;5.95;3.92;;;;;;;10.47;100.00;101462.47;5236648;28;20632;-79
2021/05/29 00:35:37;;;;;;;5.28;3.90;;;;;;;10.66;100.00;101464.69;5217630;28;20086;-79
2021/05/29 00:38:08;;;;;;;5.07;3.80;;;;;;;10.69;100.00;101463.78;5227632;28;20029;-79
2021/05/29 00:40:38;;;;;;;7.93;4.55;;;;;;;10.42;100.00;101464.34;5229117;28;20202;-77
2021/05/29 00:43:09;;;;;;;6.25;3.65;;;;;;;10.32;100.00;101463.66;5223613;28;20029;-77
2021/05/29 00:45:39;;;;;;;8.15;4.25;;;;;;;10.26;100.00;101460.31;5226115;28;20031;-79
2021/05/29 00:48:09;;;;;;;7.82;4.88;;;;;;;10.51;100.00;101465.00;5231530;28;20033;-78
2021/05/29 00:50:49;;;;;;;7.55;5.00;;;;;;;10.49;100.00;101458.13;5233962;28;20048;-78
2021/05/29 00:53:19;;;;;;;5.20;4.40;;;;;;;10.94;100.00;101464.94;5238702;28;20482;-78
2021/05/29 00:55:50;;;;;;;8.18;4.80;;;;;;;10.76;100.00;101467.97;5233528;28;20031;-77
2021/05/29 00:58:21;;;;;;;6.28;4.50;;;;;;;10.78;100.00;101467.03;5238451;28;20032;-75
2021/05/29 01:00:53;;;;;;;8.13;4.78;;;;;;;10.85;100.00;101465.16;5234189;28;20028;-77
2021/05/29 01:03:24;;;;;;;7.13;5.50;;;;;;;10.76;100.00;101470.56;5232723;28;20089;-77
2021/05/29 01:05:55;;;;;;;6.85;5.50;;;;;;;10.95;100.00;101464.91;5225058;28;20025;-77
2021/05/29 01:08:25;;;;;;;9.25;6.18;;;;;;;11.08;100.00;101472.44;5226751;28;20481;-78
2021/05/29 01:10:56;;;;;;;8.50;5.85;;;;;;;11.12;100.00;101476.69;5228708;28;20067;-77
2021/05/29 01:13:34;;;;;;;8.52;6.32;;;;;;;11.23;100.00;101472.06;5234372;28;20024;-78
2021/05/29 01:16:11;;;;;;;9.82;6.60;;;;;;;11.19;100.00;101477.41;5226170;28;20052;-76
2021/05/29 01:18:41;;;;;;;8.90;6.38;;;;;;;11.17;100.00;101474.84;5237365;28;20658;-78
2021/05/29 01:21:12;;;;;;;10.63;6.95;;;;;;;11.27;100.00;101473.72;5235607;28;20020;-78
2021/05/29 01:23:42;;;;;;;10.90;7.28;;;;;;;11.38;100.00;101473.44;5231353;28;20025;-76
2021/05/29 01:26:12;;;;;;;10.23;7.28;;;;;;;11.45;100.00;101470.63;5236094;28;20024;-77
2021/05/29 01:28:43;;;;;;;12.05;7.88;;;;;;;11.29;100.00;101468.44;5234619;28;20086;-77
2021/05/29 01:31:14;;;;;;;12.23;7.88;;;;;;;11.47;100.00;101468.84;5228625;28;20040;-76
2021/05/29 01:33:45;;;;;;;11.93;7.82;;;;;;;11.41;100.00;101476.84;5232495;28;20458;-77
2021/05/29 01:36:15;;;;;;;10.13;7.03;;;;;;;11.47;100.00;101476.69;5233933;28;20032;-78
2021/05/29 01:38:46;;;;;;;11.38;7.45;;;;;;;11.51;100.00;101482.72;5224443;28;20074;-77
2021/05/29 01:41:19;;;;;;;13.30;7.88;;;;;;;11.56;100.00;101476.50;5230306;28;20048;-77
2021/05/29 01:43:50;;;;;;;11.98;7.15;;;;;;;11.49;100.00;101481.91;5230911;28;20041;-78
2021/05/29 01:46:21;;;;;;;12.32;7.30;;;;;;;11.21;100.00;101476.47;5231761;28;20112;-78
2021/05/29 01:48:52;;;;;;;13.40;6.75;;;;;;;11.32;100.00;101479.72;5234232;28;20448;-78
2021/05/29 01:51:23;;;;;;;14.20;7.03;;;;;;;11.38;100.00;101469.09;5237337;28;20033;-78
2021/05/29 01:53:55;;;;;;;12.98;7.05;;;;;;;11.40;100.00;101471.66;5240384;28;20449;-78
2021/05/29 01:56:25;;;;;;;13.38;6.80;;;;;;;11.42;100.00;101470.72;5232540;28;20063;-76
2021/05/29 01:58:56;;;;;;;11.07;7.03;;;;;;;11.36;100.00;101465.66;5229954;28;20053;-77
2021/05/29 02:01:26;;;;;;;14.13;7.25;;;;;;;11.21;100.00;101471.25;5215979;28;20029;-76
2021/05/29 02:03:56;;;;;;;11.75;7.25;;;;;;;11.06;100.00;101476.84;5239071;28;20035;-77
2021/05/29 02:06:28;;;;;;;13.98;7.13;;;;;;;11.00;100.00;101480.50;5235938;28;20151;-77
2021/05/29 02:08:58;;;;;;;12.35;7.18;;;;;;;11.00;100.00;101483.13;5208942;28;20107;-78
2021/05/29 02:11:28;;;;;;;11.65;7.15;;;;;;;11.03;100.00;101487.38;5230203;28;20640;-78
2021/05/29 02:13:58;;;;;;;12.13;7.53;;;;;;;11.18;100.00;101491.38;5237916;28;20024;-77
2021/05/29 02:16:29;;;;;;;12.68;7.20;;;;;;;11.15;100.00;101487.09;5235036;28;20497;-77
2021/05/29 02:18:59;;;;;;;10.32;7.72;;;;;;;11.08;100.00;101490.75;5237861;28;20025;-77
2021/05/29 02:21:29;;;;;;;14.05;8.00;;;;;;;10.98;100.00;101480.53;5237913;28;20112;-78
2021/05/29 02:24:00;;;;;;;13.10;8.18;;;;;;;11.04;100.00;101483.88;5234538;28;20037;-77
2021/05/29 02:26:30;;;;;;;12.20;7.95;;;;;;;11.05;100.00;101480.34;5238113;28;20420;-77
2021/05/29 02:29:00;;;;;;;12.90;8.20;;;;;;;11.17;100.00;101485.31;5234369;28;20572;-78
2021/05/29 02:31:31;;;;;;;13.75;8.18;;;;;;;11.50;100.00;101479.25;5237212;28;20048;-77
2021/05/29 02:34:01;;;;;;;12.55;7.88;;;;;;;11.37;100.00;101485.69;5234679;28;20051;-77
2021/05/29 02:36:31;;;;;;;14.73;8.10;;;;;;;11.43;100.00;101477.69;5234366;28;20028;-78
2021/05/29 02:39:02;;;;;;;12.35;7.85;;;;;;;11.53;100.00;101484.41;5227208;28;20311;-78
2021/05/29 02:41:32;;;;;;;15.45;7.97;;;;;;;11.55;100.00;101486.97;5235293;28;20474;-77
2021/05/29 02:44:03;;;;;;;15.70;8.18;;;;;;;11.58;100.00;101486.97;5233741;28;20021;-78
2021/05/29 02:46:33;;;;;;;13.43;7.45;;;;;;;11.58;100.00;101487.81;5238241;28;20030;-77
2021/05/29 02:49:03;;;;;;;15.07;8.65;;;;;;;11.48;100.00;101488.88;5233544;28;20032;-77
2021/05/29 02:51:33;;;;;;;12.57;8.02;;;;;;;11.50;100.00;101487.13;5237236;28;20032;-78
2021/05/29 02:54:04;;;;;;;18.75;8.48;;;;;;;11.65;100.00;101494.59;5216125;28;20398;-78
2021/05/29 02:56:34;;;;;;;13.15;8.00;;;;;;;11.54;100.00;101493.13;5237405;28;20035;-77
2021/05/29 02:59:05;;;;;;;13.52;7.80;;;;;;;11.63;100.00;101499.00;5233482;28;20389;-78
2021/05/29 03:01:35;;;;;;;17.25;8.65;;;;;;;11.22;100.00;101499.13;5236354;28;20032;-78
2021/05/29 03:04:05;;;;;;;13.20;8.40;;;;;;;11.20;100.00;101500.94;5233336;28;20029;-78
2021/05/29 03:06:36;;;;;;;14.40;8.77;;;;;;;11.37;100.00;101504.00;5233761;28;20032;-78
2021/05/29 03:09:07;;;;;;;13.80;8.23;;;;;;;11.43;100.00;101500.41;5226401;28;20056;-78
2021/05/29 03:11:42;;;;;;;13.50;8.52;;;;;;;11.30;100.00;101499.81;5229272;28;20025;-78
2021/05/29 03:14:13;;;;;;;16.13;8.05;;;;;;;11.28;100.00;101508.59;5236453;28;20107;-77
2021/05/29 03:16:43;;;;;;;12.23;8.43;;;;;;;11.31;100.00;101498.91;5234691;28;20550;-78
2021/05/29 03:19:14;;;;;;;15.32;8.73;;;;;;;11.39;100.00;101499.59;5235516;28;20032;-77
2021/05/29 03:21:45;;;;;;;13.88;8.23;;;;;;;11.35;100.00;101503.19;5234304;28;20025;-78
2021/05/29 03:24:15;;;;;;;15.93;8.43;;;;;;;11.22;100.00;101512.22;5235092;28;20090;-77
2021/05/29 03:26:46;;;;;;;18.27;8.90;;;;;;;11.36;100.00;101510.16;5235113;28;20486;-78
2021/05/29 03:29:16;;;;;;;13.00;8.25;;;;;;;11.29;100.00;101511.16;5234670;28;20067;-78
2021/05/29 03:31:47;;;;;;;13.07;8.07;;;;;;;11.30;100.00;101514.66;5234639;28;20024;-78
2021/05/29 03:34:17;;;;;;;16.17;8.15;;;;;;;11.34;100.00;101519.78;5236866;28;20059;-78
2021/05/29 03:36:48;;;;;;;12.75;7.65;;;;;;;11.41;100.00;101516.13;5215444;28;20029;-77
2021/05/29 03:39:18;;;;;;;11.63;7.63;;;;;;;11.21;100.00;101518.34;5224185;28;20032;-77
2021/05/29 03:41:48;;;;;;;16.45;8.30;;;;;;;11.15;100.00;101522.84;5228168;28;20282;-78
2021/05/29 03:44:18;;;;;;;14.98;8.88;;;;;;;11.15;100.00;101523.72;5216914;28;20398;-77
2021/05/29 03:46:49;;;;;;;14.65;8.05;;;;;;;11.20;100.00;101527.09;5234446;28;20067;-78
2021/05/29 03:49:19;;;;;;;18.67;9.15;;;;;;;11.25;100.00;101527.00;5235040;28;20040;-78
2021/05/29 03:51:49;;;;;;;16.08;8.90;;;;;;;11.37;100.00;101526.69;5233655;28;20032;-78
2021/05/29 03:54:21;;;;;;;13.38;8.65;;;;;;;11.26;100.00;101532.19;5217202;28;20033;-77
2021/05/29 03:56:51;;;;;;;15.45;8.20;;;;;;;11.28;100.00;101537.38;5234010;28;20089;-78
2021/05/29 03:59:21;;;;;;;14.63;8.50;;;;;;;11.36;100.00;101533.69;5234947;28;20131;-77
2021/05/29 04:01:52;;;;;;;14.95;8.05;;;;;;;11.45;100.00;101532.63;5233417;28;20053;-77
2021/05/29 04:04:22;;;;;;;16.27;8.15;;;;;;;11.26;100.00;101540.03;5235230;28;20060;-78
2021/05/29 04:06:52;;;;;;;14.50;7.97;;;;;;;11.28;100.00;101535.63;5232522;28;20035;-77
2021/05/29 04:09:23;;;;;;;14.38;8.00;;;;;;;11.26;100.00;101537.41;5223105;28;20025;-78
2021/05/29 04:11:53;;;;;;;12.50;7.63;;;;;;;11.28;100.00;101530.38;5231725;28;20112;-77
2021/05/29 04:14:24;;;;;;;13.30;7.53;;;;;;;11.52;100.00;101526.31;5235523;28;20060;-78
2021/05/29 04:16:54;;;;;;;14.60;7.82;;;;;;;11.29;100.00;101529.47;5232958;28;20033;-78
2021/05/29 04:19:24;;;;;;;13.25;7.38;;;;;;;11.38;100.00;101526.66;5236919;28;20497;-79
2021/05/29 04:21:55;;;;;;;12.07;7.55;;;;;;;11.44;100.00;101521.28;5237965;28;20040;-77
2021/05/29 04:24:25;;;;;;;12.48;7.10;;;;;;;11.50;100.00;101531.63;5234953;28;20060;-77
2021/05/29 04:26:55;;;;;;;12.20;6.90;;;;;;;11.51;100.00;101528.09;5220270;28;20048;-78
2021/05/29 04:29:25;;;;;;;13.85;6.95;;;;;;;11.41;100.00;101531.81;5235774;28;20021;-77
2021/05/29 04:31:56;;;;;;;10.63;6.97;;;;;;;11.34;100.00;101538.13;5242178;28;20028;-78
2021/05/29 04:34:26;;;;;;;11.32;7.45;;;;;;;11.40;100.00;101530.09;5231360;28;20021;-78
2021/05/29 04:36:56;;;;;;;12.30;7.28;;;;;;;11.27;100.00;101543.53;5227163;28;20085;-78
2021/05/29 04:39:27;;;;;;;14.80;7.00;;;;;;;11.36;100.00;101540.69;5223226;28;20025;-78
2021/05/29 04:41:57;;;;;;;12.50;7.15;;;;;;;11.44;100.00;101534.38;5227449;28;20025;-78
2021/05/29 04:44:28;;;;;;;12.75;6.63;;;;;;;11.25;100.00;101540.09;5235767;28;20032;-78
2021/05/29 04:47:01;;;;;;;13.68;7.00;;;;;;;11.39;100.00;101538.84;5232233;28;20083;-78
2021/05/29 04:49:31;;;;;;;10.68;6.30;;;;;;;11.26;100.00;101542.66;5235451;28;20063;-78
2021/05/29 04:52:03;;;;;;;10.32;6.60;;;;;;;11.30;100.00;101539.06;5230934;28;20057;-78
2021/05/29 04:54:33;;;;;;;11.38;6.28;;;;;;;11.36;100.00;101549.41;5231424;28;20036;-78
2021/05/29 04:57:04;;;;;;;13.07;6.55;;;;;;;11.28;100.00;101547.84;5234564;28;20028;-78
2021/05/29 04:59:34;;;;;;;10.77;5.90;;;;;;;11.23;100.00;101542.72;5239831;28;20021;-78
2021/05/29 05:02:04;;;;;;;9.27;6.05;;;;;;;11.23;100.00;101550.56;5224961;28;20029;-78
2021/05/29 05:04:35;;;;;;;10.55;6.07;;;;;;;11.27;100.00;101544.38;5238973;28;20036;-78
2021/05/29 05:07:05;;;;;;;12.27;6.00;;;;;;;11.33;100.00;101551.22;5238241;28;20521;-78
2021/05/29 05:09:35;;;;;;;12.27;6.63;;;;;;;11.38;100.00;101552.84;5230872;28;20021;-77
2021/05/29 05:12:06;;;;;;;14.73;6.35;;;;;;;11.41;100.00;101552.75;5238898;28;20036;-77
2021/05/29 05:14:36;;;;;;;12.55;6.65;;;;;;;11.38;100.00;101555.47;5240339;28;20024;-77
2021/05/29 05:17:07;;;;;;;11.32;6.28;;;;;;;11.34;100.00;101555.56;5234280;28;20040;-77
2021/05/29 05:19:37;;;;;;;11.10;6.18;;;;;;;11.19;100.00;101559.41;5222656;28;20045;-78
2021/05/29 05:22:07;;;;;;;11.13;6.38;;;;;;;11.00;100.00;101564.22;5206390;28;20028;-78
2021/05/29 05:24:38;;;;;;;11.90;6.75;;;;;;;11.17;100.00;101557.69;5222100;28;20040;-78
2021/05/29 05:27:08;;;;;;;10.25;5.68;;;;;;;11.05;98.46;101566.69;5230372;28;20297;-77
2021/05/29 05:29:38;;;;;;;13.93;6.30;;;;;;;11.19;98.92;101566.38;5213584;28;20125;-78
2021/05/29 05:32:09;;;;;;;9.57;5.80;;;;;;;11.09;98.08;101576.19;5225214;28;20030;-77
2021/05/29 05:34:39;;;;;;;13.00;6.20;;;;;;;10.92;98.28;101576.56;5225594;28;20068;-78
2021/05/29 05:37:10;;;;;;;11.05;5.90;;;;;;;10.87;98.43;101574.03;5223128;28;20391;-78
2021/05/29 05:39:40;;;;;;;11.27;6.10;;;;;;;11.02;99.43;101588.56;5220878;28;20040;-78
2021/05/29 05:42:11;;;;;;;10.75;6.25;;;;;;;10.93;98.03;101584.41;5230839;28;20070;-77
2021/05/29 05:44:41;;;;;;;12.00;5.95;;;;;;;11.11;97.21;101582.22;5232826;28;20040;-78
2021/05/29 05:47:11;;;;;;;12.98;6.30;;;;;;;11.09;96.42;101591.03;5230699;28;20028;-77
2021/05/29 05:49:42;;;;;;;10.32;6.15;;;;;;;11.15;96.13;101585.66;5208573;28;20473;-78
2021/05/29 05:52:12;;;;;;;10.52;6.00;;;;;;;10.98;97.24;101595.63;5225612;28;20120;-78
2021/05/29 05:54:43;;;;;;;10.05;5.88;;;;;;;11.03;98.32;101589.41;5227791;28;20036;-78
2021/05/29 05:57:14;;;;;;;11.20;6.13;;;;;;;11.02;97.13;101593.81;5227897;28;20035;-77
2021/05/29 05:59:44;;;;;;;9.90;5.78;;;;;;;10.92;96.23;101603.59;5231250;28;20044;-77
2021/05/29 06:02:14;;;;;;;14.48;5.70;;;;;;;10.98;97.48;101603.47;5232349;28;20024;-78
2021/05/29 06:04:45;;;;;;;11.20;6.25;;;;;;;11.16;96.88;101603.94;5232106;28;20120;-78
2021/05/29 06:07:15;;;;;;;11.60;6.07;;;;;;;11.03;97.89;101607.72;5227212;28;20018;-78
2021/05/29 06:09:46;;;;;;;13.88;5.47;;;;;;;11.06;98.43;101602.41;5224419;28;20041;-78
2021/05/29 06:12:16;;;;;;;10.02;5.85;;;;;;;11.20;95.95;101605.59;5234635;28;20426;-78
2021/05/29 06:20:25;;;;;;;10.40;5.43;;;;;;;11.36;95.56;101611.34;5232669;28;20045;-77
2021/05/29 06:22:55;;;;;;;10.00;5.65;;;;;;;11.45;96.25;101612.00;5234959;28;20032;-77
2021/05/29 06:25:25;;;;;;;11.05;5.63;;;;;;;11.30;96.09;101607.09;5219101;28;20405;-77
2021/05/29 06:27:56;;;;;;;10.10;5.07;;;;;;;11.47;94.95;101615.44;5225982;28;20636;-78
2021/05/29 06:30:26;;;;;;;9.63;5.60;;;;;;;11.42;96.68;101624.31;5228816;28;20512;-78
2021/05/29 06:32:56;;;;;;;7.93;5.18;;;;;;;11.34;94.63;101621.88;5228432;28;20108;-78
2021/05/29 06:35:27;;;;;;;10.60;4.90;;;;;;;11.44;93.08;101630.38;5216462;28;20905;-78
2021/05/29 06:37:57;;;;;;;11.48;5.25;;;;;;;11.16;93.99;101629.25;5220421;28;20071;-78
2021/05/29 06:40:27;;;;;;;9.23;5.55;;;;;;;11.21;93.40;101628.25;5223393;28;20045;-79
2021/05/29 06:42:58;;;;;;;9.57;5.22;;;;;;;11.62;93.88;101628.22;5240229;28;20092;-78
2021/05/29 06:45:30;;;;;;;12.57;5.35;;;;;;;11.58;92.38;101633.59;5236297;28;20044;-78
2021/05/29 06:48:01;;;;;;;10.95;5.18;;;;;;;11.62;92.99;101624.75;5242380;28;20024;-77
2021/05/29 06:50:31;;;;;;;10.65;5.43;;;;;;;11.62;92.57;101622.97;5230741;28;20028;-77
2021/05/29 06:53:04;;;;;;;10.70;5.38;;;;;;;11.46;92.62;101629.41;5234477;28;20039;-78
2021/05/29 07:01:27;;;;;;;11.73;5.40;;;;;;;11.46;93.34;101639.91;5171333;28;20036;-77
2021/05/29 07:03:58;;;;;;;11.02;5.00;;;;;;;11.55;93.77;101639.72;5237449;28;20470;-77
2021/05/29 07:06:28;;;;;;;9.50;5.55;;;;;;;11.48;94.14;101639.88;5231797;28;20044;-77
2021/05/29 07:08:58;;;;;;;10.40;5.50;;;;;;;11.49;93.91;101634.63;5225211;28;20422;-78
2021/05/29 07:11:29;;;;;;;13.18;5.68;;;;;;;11.36;94.08;101641.00;5233501;28;20185;-78
2021/05/29 07:13:59;;;;;;;12.25;5.18;;;;;;;11.46;93.38;101639.06;5220149;28;20044;-78
2021/05/29 07:16:29;;;;;;;10.13;5.00;;;;;;;11.41;94.20;101646.16;5226355;28;20383;-78
2021/05/29 07:19:00;;;;;;;11.10;5.10;;;;;;;11.57;93.45;101634.44;5229188;28;20020;-78
2021/05/29 07:21:30;;;;;;;11.65;5.00;;;;;;;11.57;91.81;101656.28;5227315;28;20108;-79
2021/05/29 07:24:01;;;;;;;12.48;5.07;;;;;;;11.62;92.91;101643.09;5231283;28;20028;-78
2021/05/29 07:26:32;;;;;;;11.73;5.28;;;;;;;11.42;92.23;101656.56;5230845;28;20649;-78
2021/05/29 07:29:03;;;;;;;11.55;5.72;;;;;;;11.67;91.18;101651.69;5229885;28;20028;-78
2021/05/29 07:31:33;;;;;;;9.95;5.32;;;;;;;11.74;92.62;101651.50;5225183;28;20021;-78
2021/05/29 07:34:03;;;;;;;14.63;6.00;;;;;;;11.93;91.33;101641.47;5230872;28;20039;-78
2021/05/29 07:36:34;;;;;;;11.80;5.60;;;;;;;11.96;91.63;101650.09;5228067;28;20717;-78
2021/05/29 07:39:05;;;;;;;11.65;5.20;;;;;;;11.96;89.34;101641.41;5220048;28;20128;-78
2021/05/29 07:41:36;;;;;;;10.32;5.25;;;;;;;11.87;89.82;101645.09;5225015;28;20029;-78
2021/05/29 07:44:07;;;;;;;11.20;5.28;;;;;;;12.19;89.46;101639.06;5226208;28;20120;-78
2021/05/29 07:46:37;;;;;;;9.38;5.28;;;;;;;11.96;87.72;101644.84;5224404;28;20020;-78
2021/05/29 07:49:08;;;;;;;9.05;4.97;;;;;;;12.02;86.91;101652.59;5224000;28;20037;-78
2021/05/29 07:51:38;;;;;;;12.65;5.43;;;;;;;12.36;87.63;101652.59;5216998;28;20043;-78
2021/05/29 07:54:09;;;;;;;7.75;4.97;;;;;;;12.43;87.82;101655.03;5217421;28;20100;-78
2021/05/29 07:56:40;;;;;;;9.85;5.10;;;;;;;12.45;86.49;101655.00;5234180;28;20488;-78
2021/05/29 07:59:13;;;;;;;11.65;5.20;;;;;;;12.22;88.20;101666.06;5234697;28;20049;-78
2021/05/29 08:01:44;;;;;;;10.15;5.07;;;;;;;12.40;89.64;101662.09;5235659;28;20044;-78
2021/05/29 08:04:16;;;;;;;10.02;4.53;;;;;;;12.32;89.06;101667.53;5284183;22;20053;-81
2021/05/29 08:06:46;;;;;;;8.93;4.80;;;;;;;12.41;88.24;101669.94;5241633;28;20084;-81
2021/05/29 08:09:17;;;;;;;10.68;4.97;;;;;;;12.45;88.10;101670.72;5234034;28;20097;-80
2021/05/29 08:11:47;;;;;;;13.05;6.00;;;;;;;12.00;90.96;101671.84;5258612;28;20382;-81
2021/05/29 08:14:17;;;;;;;11.30;5.40;;;;;;;12.30;90.22;101669.34;5237531;28;20039;-81
2021/05/29 08:16:48;;;;;;;12.85;5.50;;;;;;;12.38;91.16;101670.03;5255113;28;20056;-81
2021/05/29 08:19:19;;;;;;;7.75;5.10;;;;;;;12.33;91.97;101674.50;5249365;28;20044;-81
2021/05/29 08:21:50;;;;;;;10.52;5.50;;;;;;;12.40;90.26;101676.09;5238088;28;20107;-81
2021/05/29 08:24:20;;;;;;;11.20;5.22;;;;;;;12.42;89.17;101679.53;5233548;28;20043;-81
2021/05/29 08:26:51;;;;;;;10.07;5.30;;;;;;;12.62;89.52;101685.13;5257449;28;20028;-80
2021/05/29 08:29:22;;;;;;;13.38;5.93;;;;;;;12.72;88.36;101683.09;5229343;28;20036;-81
2021/05/29 08:31:52;;;;;;;11.02;5.00;;;;;;;12.65;86.96;101695.50;5239051;28;20035;-81
2021/05/29 08:34:22;;;;;;;9.13;5.50;;;;;;;12.32;90.02;101687.66;5241253;28;20431;-81
2021/05/29 08:36:53;;;;;;;13.15;5.82;;;;;;;12.29;89.44;101683.34;5255175;28;20043;-81
2021/05/29 08:39:23;;;;;;;10.73;5.88;;;;;;;12.51;90.98;101695.03;5243248;28;20032;-81
2021/05/29 08:41:56;;;;;;;11.93;6.00;;;;;;;11.92;92.62;101687.75;5229854;28;20477;-81
2021/05/29 08:44:26;;;;;;;11.13;5.43;;;;;;;12.19;91.71;101687.13;5236691;28;20047;-81
2021/05/29 08:46:56;;;;;;;11.88;6.35;;;;;;;12.23;92.75;101686.13;5241010;28;20106;-81
2021/05/29 08:49:27;;;;;;;16.42;6.15;;;;;;;12.27;92.70;101686.94;5236023;28;20056;-80
2021/05/29 08:52:00;;;;;;;8.23;5.40;;;;;;;12.37;91.04;101688.41;5253847;28;20047;-81
2021/05/29 08:54:31;;;;;;;9.88;6.10;;;;;;;12.50;90.47;101690.66;5222291;28;20044;-81
2021/05/29 08:57:01;;;;;;;12.63;6.45;;;;;;;12.48;91.63;101683.75;5227167;28;20069;-81
2021/05/29 08:59:31;;;;;;;10.98;6.20;;;;;;;12.31;92.82;101686.78;5248875;28;20490;-81
2021/05/29 09:02:04;;;;;;;10.50;6.00;;;;;;;12.54;89.51;101697.59;5240280;28;20074;-80
2021/05/29 09:04:34;;;;;;;12.07;5.95;;;;;;;12.55;89.62;101695.78;5232432;28;20020;-81
2021/05/29 09:07:05;;;;;;;11.23;5.78;;;;;;;12.58;89.19;101691.34;5252538;28;20337;-81
2021/05/29 09:09:35;;;;;;;10.43;6.40;;;;;;;12.80;89.06;101697.75;5246366;28;20089;-81
2021/05/29 09:12:10;;;;;;;13.73;5.80;;;;;;;12.39;89.17;101690.09;5255043;28;20019;-81
2021/05/29 09:14:41;;;;;;;12.52;5.95;;;;;;;12.61;88.17;101701.75;5258803;28;20212;-81
2021/05/29 09:17:21;;;;;;;9.73;5.63;;;;;;;12.91;86.61;101696.53;5259737;28;20043;-79
2021/05/29 09:20:09;;;;;;;15.50;5.90;;;;;;;13.05;87.67;101702.31;5256546;28;20022;-80
2021/05/29 09:22:41;;;;;;;12.18;5.50;;;;;;;13.17;86.76;101693.22;5256908;28;20422;-81
2021/05/29 09:25:18;;;;;;;10.18;5.53;;;;;;;13.19;87.26;101699.28;5246552;28;20236;-81
2021/05/29 09:27:55;;;;;;;17.52;5.90;;;;;;;13.51;84.94;101705.34;5241939;28;20038;-81
2021/05/29 09:30:41;;;;;;;9.48;5.05;;;;;;;13.48;84.27;101689.69;5236448;28;20047;-81
2021/05/29 09:33:20;;;;;;;12.00;5.23;;;;;;;13.67;82.91;101701.38;5246467;28;20027;-81
2021/05/29 09:35:55;;;;;;;11.23;5.93;;;;;;;13.33;82.70;101700.66;5224036;28;20036;-81
2021/05/29 09:38:35;;;;;;;10.07;5.40;;;;;;;13.61;83.98;101695.44;5237076;28;20099;-82
2021/05/29 09:41:18;;;;;;;12.32;5.70;;;;;;;13.51;81.74;101701.84;5243470;28;20514;-80
2021/05/29 09:43:59;;;;;;;9.95;5.13;;;;;;;13.43;83.73;101696.81;5246717;28;20062;-82
2021/05/29 09:46:30;;;;;;;12.32;5.47;;;;;;;13.36;84.20;101702.31;5246871;28;20028;-81
2021/05/29 09:49:01;;;;;;;10.50;5.28;;;;;;;13.40;83.86;101702.19;5246974;28;20096;-80
2021/05/29 09:51:31;;;;;;;9.65;4.85;;;;;;;13.45;81.36;101702.03;5259348;28;20040;-81
2021/05/29 09:54:07;;;;;;;11.35;5.07;;;;;;;13.48;83.00;101704.56;5235811;28;20492;-81
2021/05/29 09:56:41;;;;;;;;;;;;;;;13.51;84.50;101700.09;5234032;28;20048;-81
2021/05/29 09:59:13;;;;;;;16.15;5.15;;;;;;;13.51;84.03;101705.34;5257386;28;19919;-80
2021/05/29 10:01:48;;;;;;;12.48;5.90;;;;;;;13.42;84.91;101704.78;5252883;28;20036;-81
2021/05/29 10:04:21;;;;;;;9.30;5.50;;;;;;;13.36;85.13;101710.19;5226259;28;20084;-80
2021/05/29 10:07:00;;;;;;;11.68;5.40;;;;;;;13.33;86.13;101713.78;5252529;28;20033;-81
2021/05/29 10:09:32;;;;;;;10.60;5.68;;;;;;;13.28;86.60;101712.19;5227887;28;20021;-80
2021/05/29 10:12:04;;;;;;;13.18;5.82;;;;;;;13.25;86.23;101722.78;5231825;28;20070;-81
2021/05/29 10:14:35;;;;;;;10.30;5.82;;;;;;;13.06;85.14;101722.41;5253812;28;20077;-80
2021/05/29 10:17:08;;;;;;;11.43;6.03;;;;;;;13.12;87.61;101729.25;5235622;28;20100;-80
2021/05/29 10:19:40;;;;;;;9.80;5.15;;;;;;;12.83;85.22;101729.13;5238684;28;20020;-81
2021/05/29 10:22:15;;;;;;;9.80;5.20;;;;;;;13.12;87.15;101730.13;5258198;28;20039;-81
2021/05/29 10:24:49;;;;;;;8.65;5.05;;;;;;;13.24;84.16;101726.31;5238069;28;20067;-80
2021/05/29 10:27:28;;;;;;;9.27;4.88;;;;;;;13.29;84.55;101735.78;5254396;28;20036;-81
2021/05/29 10:30:00;;;;;;;10.13;5.18;;;;;;;13.34;84.53;101733.88;5261844;28;20505;-81
2021/05/29 10:32:30;;;;;;;8.18;4.97;;;;;;;13.49;84.26;101743.06;5239338;28;20063;-81
2021/05/29 10:35:07;;;;;;;8.93;4.78;;;;;;;13.49;84.77;101732.56;5243804;28;20075;-81
2021/05/29 10:37:39;;;;;;;10.05;5.40;;;;;;;13.23;83.85;101729.84;5225196;28;20066;-81
2021/05/29 10:40:23;;;;;;;11.10;5.53;;;;;;;13.55;84.24;101735.03;5231405;28;20035;-81
2021/05/29 10:43:13;;;;;;;8.80;5.22;;;;;;;13.51;83.82;101736.00;5237776;28;20086;-81
2021/05/29 10:45:52;;;;;;;12.65;5.47;;;;;;;13.46;83.70;101730.91;5259370;28;20024;-80
2021/05/29 10:48:27;;;;;;;10.05;5.10;;;;;;;13.43;84.25;101735.38;5259767;28;20633;-81
2021/05/29 10:51:08;;;;;;;12.80;5.90;;;;;;;13.49;82.92;101730.81;5235558;28;20033;-81
2021/05/29 10:53:53;;;;;;;8.90;5.20;;;;;;;13.63;82.31;101733.03;5231120;28;21210;-81
2021/05/29 10:56:28;;;;;;;9.77;5.50;;;;;;;13.69;82.49;101735.47;5238225;28;20154;-81
2021/05/29 10:59:18;;;;;;;11.32;5.00;;;;;;;13.63;82.79;101738.28;5242973;28;20119;-81
2021/05/29 11:01:48;;;;;;;10.10;5.35;;;;;;;13.69;83.02;101735.47;5252434;28;20028;-81
2021/05/29 11:04:19;;;;;;;11.25;5.70;;;;;;;13.86;83.40;101733.19;5257727;28;20040;-81
2021/05/29 11:06:57;;;;;;;7.93;4.95;;;;;;;13.82;83.09;101736.81;5254454;28;20028;-81
2021/05/29 11:09:32;;;;;;;10.20;4.90;;;;;;;13.67;82.28;101738.16;5228897;28;20506;-81
2021/05/29 11:12:03;;;;;;;9.88;5.55;;;;;;;13.73;82.32;101735.34;5256478;28;20029;-81
2021/05/29 11:14:56;;;;;;;9.25;5.22;;;;;;;13.59;83.24;101736.66;5237569;28;20043;-81
2021/05/29 11:17:28;;;;;;;12.07;5.53;;;;;;;13.62;83.57;101736.56;5260307;28;20547;-81
2021/05/29 11:20:01;;;;;;;10.77;5.72;;;;;;;13.68;84.10;101741.63;5256988;28;20046;-81
2021/05/29 11:22:49;;;;;;;11.77;6.13;;;;;;;13.81;83.23;101735.09;5233762;28;20020;-81
2021/05/29 11:25:23;;;;;;;13.50;6.70;;;;;;;13.72;84.29;101732.78;5257080;28;20119;-80
2021/05/29 11:27:53;;;;;;;12.43;5.88;;;;;;;13.74;82.54;101733.59;5256808;28;20024;-81
2021/05/29 11:30:32;;;;;;;10.95;6.15;;;;;;;13.70;83.79;101735.44;5239047;28;20560;-80
2021/05/29 11:35:40;;;;;;;13.43;6.88;;;;;;;13.57;83.84;101735.84;5248334;28;20108;-81
2021/05/29 11:38:16;;;;;;;13.10;6.32;;;;;;;13.45;85.01;101741.44;5250671;28;20036;-80
2021/05/29 11:40:49;;;;;;;12.55;6.28;;;;;;;13.52;84.47;101740.34;5230410;28;20032;-81
2021/05/29 11:43:33;;;;;;;10.38;5.68;;;;;;;13.27;84.27;101741.97;5258696;28;20489;-81
2021/05/29 11:46:07;;;;;;;11.52;6.07;;;;;;;13.44;85.88;101740.56;5234828;28;20082;-80
2021/05/29 11:48:42;;;;;;;12.40;6.13;;;;;;;13.69;83.84;101740.72;5259352;28;20109;-81